sensor_id;sensor_type;location;lat;lon;timestamp;P1;durP1;ratioP1;P2;durP2;ratioP2
28960;SDS011;16068;42.896;20.868;2023-12-04T00:01:16;2.13;;;0.93;;
28960;SDS011;16068;42.896;20.868;2023-12-04T00:04:02;1.77;;;1.17;;
28960;SDS011;16068;42.896;20.868;2023-12-04T00:06:49;1.65;;;0.95;;
28960;SDS011;16068;42.896;20.868;2023-12-04T00:09:35;2.17;;;1.30;;
28960;SDS011;16068;42.896;20.868;2023-12-04T00:12:21;1.67;;;1.02;;
28960;SDS011;16068;42.896;20.868;2023-12-04T00:15:07;1.30;;;1.10;;
28960;SDS011;16068;42.896;20.868;2023-12-04T00:17:57;1.45;;;1.08;;
28960;SDS011;16068;42.896;20.868;2023-12-04T00:20:43;1.75;;;1.10;;
28960;SDS011;16068;42.896;20.868;2023-12-04T00:23:29;1.52;;;1.10;;
28960;SDS011;16068;42.896;20.868;2023-12-04T00:26:15;1.42;;;0.90;;
28960;SDS011;16068;42.896;20.868;2023-12-04T00:29:01;1.10;;;0.95;;
28960;SDS011;16068;42.896;20.868;2023-12-04T00:31:47;1.83;;;1.27;;
28960;SDS011;16068;42.896;20.868;2023-12-04T00:34:33;1.67;;;1.17;;
28960;SDS011;16068;42.896;20.868;2023-12-04T00:37:19;1.33;;;1.00;;
28960;SDS011;16068;42.896;20.868;2023-12-04T00:40:05;1.63;;;1.23;;
28960;SDS011;16068;42.896;20.868;2023-12-04T00:42:52;3.75;;;1.30;;
28960;SDS011;16068;42.896;20.868;2023-12-04T00:45:38;1.63;;;1.25;;
28960;SDS011;16068;42.896;20.868;2023-12-04T00:48:29;1.80;;;1.30;;
28960;SDS011;16068;42.896;20.868;2023-12-04T00:51:15;1.98;;;1.38;;
28960;SDS011;16068;42.896;20.868;2023-12-04T00:54:01;2.03;;;1.40;;
28960;SDS011;16068;42.896;20.868;2023-12-04T00:56:47;2.30;;;1.48;;
28960;SDS011;16068;42.896;20.868;2023-12-04T00:59:34;1.48;;;1.10;;
28960;SDS011;16068;42.896;20.868;2023-12-04T01:02:21;2.15;;;1.10;;
28960;SDS011;16068;42.896;20.868;2023-12-04T01:05:06;2.28;;;1.33;;
28960;SDS011;16068;42.896;20.868;2023-12-04T01:07:53;1.60;;;1.10;;
28960;SDS011;16068;42.896;20.868;2023-12-04T01:10:39;1.60;;;1.35;;
28960;SDS011;16068;42.896;20.868;2023-12-04T01:13:25;1.85;;;1.30;;
28960;SDS011;16068;42.896;20.868;2023-12-04T01:16:20;2.03;;;1.48;;
28960;SDS011;16068;42.896;20.868;2023-12-04T01:21:52;1.60;;;1.20;;
28960;SDS011;16068;42.896;20.868;2023-12-04T01:24:39;2.63;;;1.50;;
28960;SDS011;16068;42.896;20.868;2023-12-04T01:27:28;2.13;;;1.50;;
28960;SDS011;16068;42.896;20.868;2023-12-04T01:30:14;3.08;;;1.30;;
28960;SDS011;16068;42.896;20.868;2023-12-04T01:33:01;1.50;;;1.20;;
28960;SDS011;16068;42.896;20.868;2023-12-04T01:35:47;2.03;;;1.20;;
28960;SDS011;16068;42.896;20.868;2023-12-04T01:38:36;1.65;;;1.20;;
28960;SDS011;16068;42.896;20.868;2023-12-04T01:41:23;1.08;;;0.98;;
28960;SDS011;16068;42.896;20.868;2023-12-04T01:44:08;1.80;;;1.30;;
28960;SDS011;16068;42.896;20.868;2023-12-04T01:46:54;1.45;;;1.08;;
28960;SDS011;16068;42.896;20.868;2023-12-04T01:49:41;1.35;;;1.13;;
28960;SDS011;16068;42.896;20.868;2023-12-04T01:52:27;2.05;;;1.15;;
28960;SDS011;16068;42.896;20.868;2023-12-04T01:55:14;2.47;;;1.20;;
28960;SDS011;16068;42.896;20.868;2023-12-04T01:58:01;1.17;;;1.05;;
28960;SDS011;16068;42.896;20.868;2023-12-04T02:00:48;1.25;;;1.13;;
28960;SDS011;16068;42.896;20.868;2023-12-04T02:03:35;1.80;;;1.10;;
28960;SDS011;16068;42.896;20.868;2023-12-04T02:06:21;1.75;;;1.35;;
28960;SDS011;16068;42.896;20.868;2023-12-04T02:09:08;1.17;;;1.08;;
28960;SDS011;16068;42.896;20.868;2023-12-04T02:11:58;1.88;;;1.30;;
28960;SDS011;16068;42.896;20.868;2023-12-04T02:14:44;1.48;;;1.13;;
28960;SDS011;16068;42.896;20.868;2023-12-04T02:17:30;1.27;;;1.05;;
28960;SDS011;16068;42.896;20.868;2023-12-04T02:20:18;1.42;;;1.10;;
28960;SDS011;16068;42.896;20.868;2023-12-04T02:23:04;1.92;;;1.35;;
28960;SDS011;16068;42.896;20.868;2023-12-04T02:25:50;1.77;;;1.10;;
28960;SDS011;16068;42.896;20.868;2023-12-04T02:28:39;2.35;;;1.33;;
28960;SDS011;16068;42.896;20.868;2023-12-04T02:31:25;1.73;;;1.20;;
28960;SDS011;16068;42.896;20.868;2023-12-04T02:34:12;1.92;;;1.17;;
28960;SDS011;16068;42.896;20.868;2023-12-04T02:36:59;1.70;;;1.20;;
28960;SDS011;16068;42.896;20.868;2023-12-04T02:39:45;2.05;;;1.30;;
28960;SDS011;16068;42.896;20.868;2023-12-04T02:42:32;1.67;;;1.35;;
28960;SDS011;16068;42.896;20.868;2023-12-04T02:45:19;2.10;;;1.60;;
28960;SDS011;16068;42.896;20.868;2023-12-04T02:48:05;2.28;;;1.60;;
28960;SDS011;16068;42.896;20.868;2023-12-04T02:50:53;1.80;;;1.50;;
28960;SDS011;16068;42.896;20.868;2023-12-04T02:53:40;1.63;;;1.40;;
28960;SDS011;16068;42.896;20.868;2023-12-04T02:56:26;1.73;;;1.45;;
28960;SDS011;16068;42.896;20.868;2023-12-04T02:59:14;1.70;;;1.50;;
28960;SDS011;16068;42.896;20.868;2023-12-04T03:02:00;1.98;;;1.60;;
28960;SDS011;16068;42.896;20.868;2023-12-04T03:04:46;2.35;;;1.40;;
28960;SDS011;16068;42.896;20.868;2023-12-04T03:07:32;1.83;;;1.40;;
28960;SDS011;16068;42.896;20.868;2023-12-04T03:10:19;2.33;;;1.60;;
28960;SDS011;16068;42.896;20.868;2023-12-04T03:13:04;2.40;;;1.60;;
28960;SDS011;16068;42.896;20.868;2023-12-04T03:15:50;2.72;;;1.67;;
28960;SDS011;16068;42.896;20.868;2023-12-04T03:18:36;1.90;;;1.30;;
28960;SDS011;16068;42.896;20.868;2023-12-04T03:21:22;1.92;;;1.40;;
28960;SDS011;16068;42.896;20.868;2023-12-04T03:24:09;2.05;;;1.48;;
28960;SDS011;16068;42.896;20.868;2023-12-04T03:26:55;1.90;;;1.50;;
28960;SDS011;16068;42.896;20.868;2023-12-04T03:29:41;1.90;;;1.33;;
28960;SDS011;16068;42.896;20.868;2023-12-04T03:32:26;2.00;;;1.50;;
28960;SDS011;16068;42.896;20.868;2023-12-04T03:35:13;2.97;;;1.75;;
28960;SDS011;16068;42.896;20.868;2023-12-04T03:37:59;1.88;;;1.38;;
28960;SDS011;16068;42.896;20.868;2023-12-04T03:40:45;2.05;;;1.50;;
28960;SDS011;16068;42.896;20.868;2023-12-04T03:43:31;2.17;;;1.40;;
28960;SDS011;16068;42.896;20.868;2023-12-04T03:46:17;3.15;;;1.92;;
28960;SDS011;16068;42.896;20.868;2023-12-04T03:49:04;2.05;;;1.40;;
28960;SDS011;16068;42.896;20.868;2023-12-04T03:51:51;3.13;;;1.63;;
28960;SDS011;16068;42.896;20.868;2023-12-04T03:54:37;2.67;;;1.73;;
28960;SDS011;16068;42.896;20.868;2023-12-04T03:57:23;2.63;;;1.80;;
28960;SDS011;16068;42.896;20.868;2023-12-04T04:00:09;4.28;;;2.13;;
28960;SDS011;16068;42.896;20.868;2023-12-04T04:02:56;1.73;;;1.40;;
28960;SDS011;16068;42.896;20.868;2023-12-04T04:05:42;3.08;;;2.10;;
28960;SDS011;16068;42.896;20.868;2023-12-04T04:08:28;2.67;;;1.70;;
28960;SDS011;16068;42.896;20.868;2023-12-04T04:11:13;2.45;;;1.63;;
28960;SDS011;16068;42.896;20.868;2023-12-04T04:13:59;2.45;;;1.70;;
28960;SDS011;16068;42.896;20.868;2023-12-04T04:16:45;1.70;;;1.27;;
28960;SDS011;16068;42.896;20.868;2023-12-04T04:19:31;2.63;;;1.73;;
28960;SDS011;16068;42.896;20.868;2023-12-04T04:22:17;2.67;;;1.65;;
28960;SDS011;16068;42.896;20.868;2023-12-04T04:25:07;2.10;;;1.38;;
28960;SDS011;16068;42.896;20.868;2023-12-04T04:27:53;2.70;;;1.70;;
28960;SDS011;16068;42.896;20.868;2023-12-04T04:30:40;3.25;;;2.13;;
28960;SDS011;16068;42.896;20.868;2023-12-04T04:33:25;1.60;;;1.30;;
28960;SDS011;16068;42.896;20.868;2023-12-04T04:36:12;2.15;;;1.60;;
28960;SDS011;16068;42.896;20.868;2023-12-04T04:38:57;2.63;;;1.73;;
28960;SDS011;16068;42.896;20.868;2023-12-04T04:41:44;3.08;;;1.90;;
28960;SDS011;16068;42.896;20.868;2023-12-04T04:44:30;3.97;;;2.20;;
28960;SDS011;16068;42.896;20.868;2023-12-04T04:47:17;2.70;;;1.65;;
28960;SDS011;16068;42.896;20.868;2023-12-04T04:50:02;2.65;;;1.70;;
28960;SDS011;16068;42.896;20.868;2023-12-04T04:52:49;3.28;;;1.90;;
28960;SDS011;16068;42.896;20.868;2023-12-04T04:55:35;2.33;;;1.70;;
28960;SDS011;16068;42.896;20.868;2023-12-04T04:58:33;2.72;;;1.70;;
28960;SDS011;16068;42.896;20.868;2023-12-04T05:01:19;2.42;;;1.80;;
28960;SDS011;16068;42.896;20.868;2023-12-04T05:04:05;2.20;;;1.58;;
28960;SDS011;16068;42.896;20.868;2023-12-04T05:06:51;2.60;;;1.80;;
28960;SDS011;16068;42.896;20.868;2023-12-04T05:09:37;2.00;;;1.70;;
28960;SDS011;16068;42.896;20.868;2023-12-04T05:12:23;3.30;;;2.10;;
28960;SDS011;16068;42.896;20.868;2023-12-04T05:15:09;3.35;;;2.40;;
28960;SDS011;16068;42.896;20.868;2023-12-04T05:17:55;3.28;;;2.33;;
28960;SDS011;16068;42.896;20.868;2023-12-04T05:20:41;5.18;;;3.00;;
28960;SDS011;16068;42.896;20.868;2023-12-04T05:23:27;3.35;;;2.33;;
28960;SDS011;16068;42.896;20.868;2023-12-04T05:26:13;4.82;;;3.17;;
28960;SDS011;16068;42.896;20.868;2023-12-04T05:28:59;3.88;;;2.40;;
28960;SDS011;16068;42.896;20.868;2023-12-04T05:31:46;4.35;;;2.78;;
28960;SDS011;16068;42.896;20.868;2023-12-04T05:34:32;4.85;;;2.67;;
28960;SDS011;16068;42.896;20.868;2023-12-04T05:37:18;4.65;;;2.72;;
28960;SDS011;16068;42.896;20.868;2023-12-04T05:40:04;3.80;;;2.83;;
28960;SDS011;16068;42.896;20.868;2023-12-04T05:42:51;4.70;;;2.92;;
28960;SDS011;16068;42.896;20.868;2023-12-04T05:45:38;5.18;;;2.75;;
28960;SDS011;16068;42.896;20.868;2023-12-04T05:48:24;4.63;;;2.92;;
28960;SDS011;16068;42.896;20.868;2023-12-04T05:51:10;4.00;;;2.85;;
28960;SDS011;16068;42.896;20.868;2023-12-04T05:54:00;4.72;;;2.90;;
28960;SDS011;16068;42.896;20.868;2023-12-04T05:56:46;3.95;;;2.88;;
28960;SDS011;16068;42.896;20.868;2023-12-04T05:59:32;5.18;;;2.90;;
28960;SDS011;16068;42.896;20.868;2023-12-04T06:02:18;4.10;;;2.72;;
28960;SDS011;16068;42.896;20.868;2023-12-04T06:05:05;4.93;;;3.10;;
28960;SDS011;16068;42.896;20.868;2023-12-04T06:07:53;4.30;;;2.92;;
28960;SDS011;16068;42.896;20.868;2023-12-04T06:10:41;5.85;;;3.28;;
28960;SDS011;16068;42.896;20.868;2023-12-04T06:13:27;4.85;;;2.97;;
28960;SDS011;16068;42.896;20.868;2023-12-04T06:16:13;5.18;;;2.95;;
28960;SDS011;16068;42.896;20.868;2023-12-04T06:18:59;6.53;;;2.88;;
28960;SDS011;16068;42.896;20.868;2023-12-04T06:21:45;4.38;;;2.67;;
28960;SDS011;16068;42.896;20.868;2023-12-04T06:24:31;4.82;;;3.00;;
28960;SDS011;16068;42.896;20.868;2023-12-04T06:27:18;4.22;;;2.80;;
28960;SDS011;16068;42.896;20.868;2023-12-04T06:30:07;5.65;;;2.72;;
28960;SDS011;16068;42.896;20.868;2023-12-04T06:32:55;5.22;;;3.03;;
28960;SDS011;16068;42.896;20.868;2023-12-04T06:35:42;5.00;;;3.03;;
28960;SDS011;16068;42.896;20.868;2023-12-04T06:38:28;5.22;;;3.05;;
28960;SDS011;16068;42.896;20.868;2023-12-04T06:41:17;6.50;;;3.65;;
28960;SDS011;16068;42.896;20.868;2023-12-04T06:44:04;5.95;;;3.50;;
28960;SDS011;16068;42.896;20.868;2023-12-04T06:46:51;7.88;;;3.75;;
28960;SDS011;16068;42.896;20.868;2023-12-04T06:49:37;7.28;;;4.45;;
28960;SDS011;16068;42.896;20.868;2023-12-04T06:52:24;7.80;;;4.03;;
28960;SDS011;16068;42.896;20.868;2023-12-04T06:55:12;9.20;;;4.43;;
28960;SDS011;16068;42.896;20.868;2023-12-04T06:57:58;7.47;;;3.85;;
28960;SDS011;16068;42.896;20.868;2023-12-04T07:00:45;6.60;;;3.35;;
28960;SDS011;16068;42.896;20.868;2023-12-04T07:03:31;6.00;;;3.63;;
28960;SDS011;16068;42.896;20.868;2023-12-04T07:06:17;8.23;;;4.13;;
28960;SDS011;16068;42.896;20.868;2023-12-04T07:09:03;5.03;;;3.10;;
28960;SDS011;16068;42.896;20.868;2023-12-04T07:11:49;6.28;;;3.65;;
28960;SDS011;16068;42.896;20.868;2023-12-04T07:14:35;4.70;;;3.22;;
28960;SDS011;16068;42.896;20.868;2023-12-04T07:17:21;4.22;;;3.08;;
28960;SDS011;16068;42.896;20.868;2023-12-04T07:20:08;4.15;;;2.70;;
28960;SDS011;16068;42.896;20.868;2023-12-04T07:22:54;4.82;;;2.97;;
28960;SDS011;16068;42.896;20.868;2023-12-04T07:25:41;4.78;;;2.78;;
28960;SDS011;16068;42.896;20.868;2023-12-04T07:28:26;4.97;;;3.00;;
28960;SDS011;16068;42.896;20.868;2023-12-04T07:31:14;4.82;;;3.20;;
28960;SDS011;16068;42.896;20.868;2023-12-04T07:34:00;6.05;;;3.58;;
28960;SDS011;16068;42.896;20.868;2023-12-04T07:36:47;5.22;;;3.50;;
28960;SDS011;16068;42.896;20.868;2023-12-04T07:39:33;6.15;;;3.50;;
28960;SDS011;16068;42.896;20.868;2023-12-04T07:42:20;7.38;;;4.25;;
28960;SDS011;16068;42.896;20.868;2023-12-04T07:45:06;5.53;;;3.55;;
28960;SDS011;16068;42.896;20.868;2023-12-04T07:47:52;8.30;;;4.75;;
28960;SDS011;16068;42.896;20.868;2023-12-04T07:50:38;7.53;;;4.55;;
28960;SDS011;16068;42.896;20.868;2023-12-04T07:53:25;6.45;;;3.90;;
28960;SDS011;16068;42.896;20.868;2023-12-04T07:56:11;4.68;;;3.30;;
28960;SDS011;16068;42.896;20.868;2023-12-04T07:58:58;6.68;;;3.67;;
28960;SDS011;16068;42.896;20.868;2023-12-04T08:01:45;6.60;;;3.95;;
28960;SDS011;16068;42.896;20.868;2023-12-04T08:04:31;5.85;;;3.33;;
28960;SDS011;16068;42.896;20.868;2023-12-04T08:07:19;6.00;;;3.33;;
28960;SDS011;16068;42.896;20.868;2023-12-04T08:10:05;6.97;;;4.10;;
28960;SDS011;16068;42.896;20.868;2023-12-04T08:12:52;5.72;;;4.22;;
28960;SDS011;16068;42.896;20.868;2023-12-04T08:15:38;7.40;;;4.28;;
28960;SDS011;16068;42.896;20.868;2023-12-04T08:18:24;6.22;;;4.20;;
28960;SDS011;16068;42.896;20.868;2023-12-04T08:21:11;6.13;;;3.42;;
28960;SDS011;16068;42.896;20.868;2023-12-04T08:23:57;6.55;;;4.07;;
28960;SDS011;16068;42.896;20.868;2023-12-04T08:26:46;6.57;;;4.22;;
28960;SDS011;16068;42.896;20.868;2023-12-04T08:29:32;5.90;;;3.55;;
28960;SDS011;16068;42.896;20.868;2023-12-04T08:32:19;5.50;;;3.65;;
28960;SDS011;16068;42.896;20.868;2023-12-04T08:35:07;5.30;;;3.22;;
28960;SDS011;16068;42.896;20.868;2023-12-04T08:37:53;5.93;;;3.97;;
28960;SDS011;16068;42.896;20.868;2023-12-04T08:40:39;3.90;;;3.08;;
28960;SDS011;16068;42.896;20.868;2023-12-04T08:43:25;6.90;;;3.78;;
28960;SDS011;16068;42.896;20.868;2023-12-04T08:46:12;5.95;;;3.38;;
28960;SDS011;16068;42.896;20.868;2023-12-04T08:48:59;5.25;;;3.15;;
28960;SDS011;16068;42.896;20.868;2023-12-04T08:51:45;6.43;;;3.97;;
28960;SDS011;16068;42.896;20.868;2023-12-04T08:54:31;6.13;;;3.40;;
28960;SDS011;16068;42.896;20.868;2023-12-04T08:57:16;5.15;;;3.47;;
28960;SDS011;16068;42.896;20.868;2023-12-04T09:00:03;7.88;;;4.00;;
28960;SDS011;16068;42.896;20.868;2023-12-04T09:02:49;5.57;;;3.65;;
28960;SDS011;16068;42.896;20.868;2023-12-04T09:05:51;6.55;;;3.40;;
28960;SDS011;16068;42.896;20.868;2023-12-04T09:08:39;6.30;;;3.42;;
28960;SDS011;16068;42.896;20.868;2023-12-04T09:11:35;6.95;;;4.10;;
28960;SDS011;16068;42.896;20.868;2023-12-04T09:14:24;5.40;;;3.30;;
28960;SDS011;16068;42.896;20.868;2023-12-04T09:17:14;4.90;;;3.03;;
28960;SDS011;16068;42.896;20.868;2023-12-04T09:20:01;8.40;;;4.80;;
28960;SDS011;16068;42.896;20.868;2023-12-04T09:22:48;6.50;;;4.22;;
28960;SDS011;16068;42.896;20.868;2023-12-04T09:25:42;4.00;;;2.95;;
28960;SDS011;16068;42.896;20.868;2023-12-04T09:28:28;5.18;;;3.05;;
28960;SDS011;16068;42.896;20.868;2023-12-04T09:31:13;4.18;;;2.40;;
28960;SDS011;16068;42.896;20.868;2023-12-04T09:34:04;2.08;;;1.73;;
28960;SDS011;16068;42.896;20.868;2023-12-04T09:36:50;2.33;;;1.80;;
28960;SDS011;16068;42.896;20.868;2023-12-04T09:39:40;2.60;;;1.88;;
28960;SDS011;16068;42.896;20.868;2023-12-04T09:42:26;3.90;;;2.33;;
28960;SDS011;16068;42.896;20.868;2023-12-04T09:45:13;4.22;;;2.28;;
28960;SDS011;16068;42.896;20.868;2023-12-04T09:47:59;4.15;;;2.35;;
28960;SDS011;16068;42.896;20.868;2023-12-04T09:50:51;2.47;;;1.92;;
28960;SDS011;16068;42.896;20.868;2023-12-04T09:53:37;3.78;;;2.67;;
28960;SDS011;16068;42.896;20.868;2023-12-04T09:56:25;5.65;;;3.28;;
28960;SDS011;16068;42.896;20.868;2023-12-04T10:02:26;4.63;;;2.92;;
28960;SDS011;16068;42.896;20.868;2023-12-04T10:05:12;4.30;;;2.58;;
28960;SDS011;16068;42.896;20.868;2023-12-04T10:08:00;3.53;;;2.35;;
28960;SDS011;16068;42.896;20.868;2023-12-04T10:10:47;3.40;;;2.10;;
28960;SDS011;16068;42.896;20.868;2023-12-04T10:13:34;4.25;;;2.70;;
28960;SDS011;16068;42.896;20.868;2023-12-04T10:16:42;4.90;;;2.17;;
28960;SDS011;16068;42.896;20.868;2023-12-04T10:19:28;3.13;;;2.22;;
28960;SDS011;16068;42.896;20.868;2023-12-04T10:22:16;10.02;;;2.72;;
28960;SDS011;16068;42.896;20.868;2023-12-04T10:25:14;4.35;;;3.00;;
28960;SDS011;16068;42.896;20.868;2023-12-04T10:28:08;4.68;;;2.35;;
28960;SDS011;16068;42.896;20.868;2023-12-04T10:30:56;4.32;;;3.05;;
28960;SDS011;16068;42.896;20.868;2023-12-04T10:33:42;4.50;;;2.80;;
28960;SDS011;16068;42.896;20.868;2023-12-04T10:36:35;4.50;;;2.60;;
28960;SDS011;16068;42.896;20.868;2023-12-04T10:39:22;4.60;;;3.05;;
28960;SDS011;16068;42.896;20.868;2023-12-04T10:42:08;4.40;;;2.75;;
28960;SDS011;16068;42.896;20.868;2023-12-04T10:44:57;4.03;;;2.90;;
28960;SDS011;16068;42.896;20.868;2023-12-04T10:47:45;4.47;;;3.15;;
28960;SDS011;16068;42.896;20.868;2023-12-04T10:50:34;5.80;;;3.10;;
28960;SDS011;16068;42.896;20.868;2023-12-04T10:53:39;5.32;;;2.85;;
28960;SDS011;16068;42.896;20.868;2023-12-04T10:56:33;4.10;;;2.50;;
28960;SDS011;16068;42.896;20.868;2023-12-04T10:59:31;5.30;;;2.95;;
28960;SDS011;16068;42.896;20.868;2023-12-04T11:02:21;5.20;;;3.00;;
28960;SDS011;16068;42.896;20.868;2023-12-04T11:05:08;5.22;;;3.05;;
28960;SDS011;16068;42.896;20.868;2023-12-04T11:08:05;5.00;;;2.85;;
28960;SDS011;16068;42.896;20.868;2023-12-04T11:11:12;4.88;;;3.22;;
28960;SDS011;16068;42.896;20.868;2023-12-04T11:14:04;4.65;;;3.25;;
28960;SDS011;16068;42.896;20.868;2023-12-04T11:16:51;4.00;;;2.95;;
28960;SDS011;16068;42.896;20.868;2023-12-04T11:23:15;5.60;;;3.92;;
28960;SDS011;16068;42.896;20.868;2023-12-04T11:26:02;4.70;;;3.58;;
28960;SDS011;16068;42.896;20.868;2023-12-04T11:31:55;7.10;;;3.90;;
28960;SDS011;16068;42.896;20.868;2023-12-04T11:34:56;6.60;;;3.78;;
28960;SDS011;16068;42.896;20.868;2023-12-04T11:37:46;6.97;;;4.38;;
28960;SDS011;16068;42.896;20.868;2023-12-04T11:40:36;7.05;;;4.63;;
28960;SDS011;16068;42.896;20.868;2023-12-04T11:43:24;8.13;;;3.97;;
28960;SDS011;16068;42.896;20.868;2023-12-04T11:46:11;8.40;;;5.05;;
28960;SDS011;16068;42.896;20.868;2023-12-04T11:52:11;5.63;;;3.83;;
28960;SDS011;16068;42.896;20.868;2023-12-04T11:55:00;7.63;;;5.05;;
28960;SDS011;16068;42.896;20.868;2023-12-04T11:57:56;7.18;;;4.43;;
28960;SDS011;16068;42.896;20.868;2023-12-04T12:00:43;5.97;;;3.92;;
28960;SDS011;16068;42.896;20.868;2023-12-04T12:03:29;8.02;;;4.90;;
28960;SDS011;16068;42.896;20.868;2023-12-04T12:06:16;7.63;;;4.78;;
28960;SDS011;16068;42.896;20.868;2023-12-04T12:09:02;5.90;;;4.20;;
28960;SDS011;16068;42.896;20.868;2023-12-04T12:11:50;7.13;;;4.38;;
28960;SDS011;16068;42.896;20.868;2023-12-04T12:14:37;7.40;;;4.70;;
28960;SDS011;16068;42.896;20.868;2023-12-04T12:17:22;6.85;;;4.38;;
28960;SDS011;16068;42.896;20.868;2023-12-04T12:20:11;7.78;;;5.00;;
28960;SDS011;16068;42.896;20.868;2023-12-04T12:22:58;9.52;;;5.45;;
28960;SDS011;16068;42.896;20.868;2023-12-04T12:25:44;6.88;;;5.25;;
28960;SDS011;16068;42.896;20.868;2023-12-04T12:28:29;7.63;;;4.97;;
28960;SDS011;16068;42.896;20.868;2023-12-04T12:31:15;7.20;;;4.45;;
28960;SDS011;16068;42.896;20.868;2023-12-04T12:34:01;6.53;;;4.25;;
28960;SDS011;16068;42.896;20.868;2023-12-04T12:36:48;7.85;;;5.40;;
28960;SDS011;16068;42.896;20.868;2023-12-04T12:39:34;10.30;;;4.93;;
28960;SDS011;16068;42.896;20.868;2023-12-04T12:42:21;7.75;;;5.30;;
28960;SDS011;16068;42.896;20.868;2023-12-04T12:45:09;7.38;;;5.15;;
28960;SDS011;16068;42.896;20.868;2023-12-04T12:47:57;12.32;;;5.60;;
28960;SDS011;16068;42.896;20.868;2023-12-04T12:50:44;6.57;;;4.85;;
28960;SDS011;16068;42.896;20.868;2023-12-04T12:53:33;7.70;;;5.18;;
28960;SDS011;16068;42.896;20.868;2023-12-04T12:56:19;8.13;;;5.25;;
28960;SDS011;16068;42.896;20.868;2023-12-04T12:59:07;8.00;;;5.07;;
28960;SDS011;16068;42.896;20.868;2023-12-04T13:01:53;7.97;;;4.88;;
28960;SDS011;16068;42.896;20.868;2023-12-04T13:04:43;7.22;;;4.38;;
28960;SDS011;16068;42.896;20.868;2023-12-04T13:07:29;7.07;;;4.25;;
28960;SDS011;16068;42.896;20.868;2023-12-04T13:10:15;5.97;;;4.38;;
28960;SDS011;16068;42.896;20.868;2023-12-04T13:13:01;6.70;;;4.35;;
28960;SDS011;16068;42.896;20.868;2023-12-04T13:15:48;4.80;;;3.30;;
28960;SDS011;16068;42.896;20.868;2023-12-04T13:18:34;6.57;;;4.28;;
28960;SDS011;16068;42.896;20.868;2023-12-04T13:21:21;7.65;;;5.45;;
28960;SDS011;16068;42.896;20.868;2023-12-04T13:24:07;8.10;;;4.63;;
28960;SDS011;16068;42.896;20.868;2023-12-04T13:26:55;6.38;;;4.72;;
28960;SDS011;16068;42.896;20.868;2023-12-04T13:29:41;9.80;;;4.95;;
28960;SDS011;16068;42.896;20.868;2023-12-04T13:32:32;7.65;;;4.28;;
28960;SDS011;16068;42.896;20.868;2023-12-04T13:35:19;5.68;;;3.33;;
28960;SDS011;16068;42.896;20.868;2023-12-04T13:38:05;6.78;;;3.58;;
28960;SDS011;16068;42.896;20.868;2023-12-04T13:41:03;4.82;;;3.55;;
28960;SDS011;16068;42.896;20.868;2023-12-04T13:44:08;4.97;;;3.55;;
28960;SDS011;16068;42.896;20.868;2023-12-04T13:46:55;6.88;;;3.83;;
28960;SDS011;16068;42.896;20.868;2023-12-04T13:49:43;7.65;;;4.47;;
28960;SDS011;16068;42.896;20.868;2023-12-04T13:52:32;4.90;;;3.50;;
28960;SDS011;16068;42.896;20.868;2023-12-04T13:55:19;6.53;;;3.67;;
28960;SDS011;16068;42.896;20.868;2023-12-04T13:58:07;8.02;;;4.15;;
28960;SDS011;16068;42.896;20.868;2023-12-04T14:01:23;6.18;;;3.58;;
28960;SDS011;16068;42.896;20.868;2023-12-04T14:04:12;6.65;;;4.00;;
28960;SDS011;16068;42.896;20.868;2023-12-04T14:06:59;5.85;;;3.90;;
28960;SDS011;16068;42.896;20.868;2023-12-04T14:09:48;9.40;;;4.47;;
28960;SDS011;16068;42.896;20.868;2023-12-04T14:12:34;9.20;;;5.57;;
28960;SDS011;16068;42.896;20.868;2023-12-04T14:15:22;10.52;;;5.80;;
28960;SDS011;16068;42.896;20.868;2023-12-04T14:18:08;15.43;;;7.35;;
28960;SDS011;16068;42.896;20.868;2023-12-04T14:20:54;9.00;;;5.25;;
28960;SDS011;16068;42.896;20.868;2023-12-04T14:23:41;9.38;;;4.53;;
28960;SDS011;16068;42.896;20.868;2023-12-04T14:26:27;8.27;;;4.60;;
28960;SDS011;16068;42.896;20.868;2023-12-04T14:29:13;6.43;;;4.32;;
28960;SDS011;16068;42.896;20.868;2023-12-04T14:31:59;8.80;;;4.93;;
28960;SDS011;16068;42.896;20.868;2023-12-04T14:34:46;7.88;;;4.55;;
28960;SDS011;16068;42.896;20.868;2023-12-04T14:37:34;11.07;;;5.80;;
28960;SDS011;16068;42.896;20.868;2023-12-04T14:40:20;9.43;;;5.00;;
28960;SDS011;16068;42.896;20.868;2023-12-04T14:43:06;7.38;;;3.97;;
28960;SDS011;16068;42.896;20.868;2023-12-04T14:45:55;7.93;;;4.25;;
28960;SDS011;16068;42.896;20.868;2023-12-04T14:48:41;6.43;;;3.83;;
28960;SDS011;16068;42.896;20.868;2023-12-04T14:51:27;7.20;;;4.35;;
28960;SDS011;16068;42.896;20.868;2023-12-04T14:54:14;6.78;;;3.92;;
28960;SDS011;16068;42.896;20.868;2023-12-04T14:57:08;5.95;;;3.60;;
28960;SDS011;16068;42.896;20.868;2023-12-04T15:00:12;6.07;;;3.80;;
28960;SDS011;16068;42.896;20.868;2023-12-04T15:03:19;6.90;;;3.80;;
28960;SDS011;16068;42.896;20.868;2023-12-04T15:06:06;6.10;;;3.45;;
28960;SDS011;16068;42.896;20.868;2023-12-04T15:08:58;5.63;;;3.53;;
28960;SDS011;16068;42.896;20.868;2023-12-04T15:12:17;6.32;;;3.88;;
28960;SDS011;16068;42.896;20.868;2023-12-04T15:15:03;6.25;;;3.97;;
28960;SDS011;16068;42.896;20.868;2023-12-04T15:18:14;7.07;;;4.40;;
28960;SDS011;16068;42.896;20.868;2023-12-04T15:21:22;6.47;;;4.38;;
28960;SDS011;16068;42.896;20.868;2023-12-04T15:24:09;6.25;;;3.95;;
28960;SDS011;16068;42.896;20.868;2023-12-04T15:26:55;7.50;;;4.18;;
28960;SDS011;16068;42.896;20.868;2023-12-04T15:29:40;7.22;;;4.40;;
28960;SDS011;16068;42.896;20.868;2023-12-04T15:32:27;8.38;;;4.75;;
28960;SDS011;16068;42.896;20.868;2023-12-04T15:35:13;11.52;;;5.13;;
28960;SDS011;16068;42.896;20.868;2023-12-04T15:37:59;10.73;;;5.63;;
28960;SDS011;16068;42.896;20.868;2023-12-04T15:40:45;10.93;;;5.45;;
28960;SDS011;16068;42.896;20.868;2023-12-04T15:43:32;9.48;;;4.90;;
28960;SDS011;16068;42.896;20.868;2023-12-04T15:46:18;7.80;;;4.72;;
28960;SDS011;16068;42.896;20.868;2023-12-04T15:49:04;6.97;;;3.83;;
28960;SDS011;16068;42.896;20.868;2023-12-04T15:51:50;6.07;;;3.92;;
28960;SDS011;16068;42.896;20.868;2023-12-04T15:54:39;8.43;;;4.30;;
28960;SDS011;16068;42.896;20.868;2023-12-04T15:57:25;6.55;;;4.13;;
28960;SDS011;16068;42.896;20.868;2023-12-04T16:00:11;6.00;;;3.65;;
28960;SDS011;16068;42.896;20.868;2023-12-04T16:02:58;7.68;;;4.05;;
28960;SDS011;16068;42.896;20.868;2023-12-04T16:05:45;7.55;;;4.75;;
28960;SDS011;16068;42.896;20.868;2023-12-04T16:08:32;8.20;;;4.32;;
28960;SDS011;16068;42.896;20.868;2023-12-04T16:11:18;9.23;;;4.57;;
28960;SDS011;16068;42.896;20.868;2023-12-04T16:14:06;8.32;;;4.90;;
28960;SDS011;16068;42.896;20.868;2023-12-04T16:16:52;7.68;;;4.30;;
28960;SDS011;16068;42.896;20.868;2023-12-04T16:19:38;7.80;;;4.18;;
28960;SDS011;16068;42.896;20.868;2023-12-04T16:22:24;7.75;;;4.22;;
28960;SDS011;16068;42.896;20.868;2023-12-04T16:25:10;9.68;;;4.97;;
28960;SDS011;16068;42.896;20.868;2023-12-04T16:28:04;9.07;;;4.78;;
28960;SDS011;16068;42.896;20.868;2023-12-04T16:30:52;7.97;;;4.85;;
28960;SDS011;16068;42.896;20.868;2023-12-04T16:33:41;7.90;;;4.57;;
28960;SDS011;16068;42.896;20.868;2023-12-04T16:36:29;6.65;;;4.10;;
28960;SDS011;16068;42.896;20.868;2023-12-04T16:39:15;6.90;;;4.20;;
28960;SDS011;16068;42.896;20.868;2023-12-04T16:42:04;10.07;;;6.22;;
28960;SDS011;16068;42.896;20.868;2023-12-04T16:44:50;9.05;;;5.50;;
28960;SDS011;16068;42.896;20.868;2023-12-04T16:47:38;9.38;;;5.13;;
28960;SDS011;16068;42.896;20.868;2023-12-04T16:50:24;7.70;;;4.70;;